createdAt,value
2018-12-08T00:02:03.060Z,96.60
2018-12-08T00:04:30.932Z,96.30
2018-12-08T00:06:58.846Z,96.20
2018-12-08T00:09:31.682Z,96.10
2018-12-08T00:11:59.232Z,95.60
2018-12-08T00:14:27.708Z,95.30
2018-12-08T00:16:56.250Z,94.90
2018-12-08T00:19:24.492Z,94.30
2018-12-08T00:21:52.024Z,94.20
2018-12-08T00:24:20.204Z,94.20
2018-12-08T00:26:47.760Z,94.40
2018-12-08T00:29:17.905Z,94.60
2018-12-08T00:31:46.701Z,94.70
2018-12-08T00:34:16.627Z,94.90
2018-12-08T00:36:44.149Z,94.90
2018-12-08T00:39:11.723Z,95.00
2018-12-08T00:41:39.268Z,95.10
2018-12-08T00:44:06.789Z,95.00
2018-12-08T00:46:34.513Z,95.10
2018-12-08T00:49:02.016Z,95.10
2018-12-08T00:51:29.617Z,95.20
2018-12-08T00:53:59.109Z,95.20
2018-12-08T00:56:26.622Z,95.50
2018-12-08T00:58:54.257Z,95.50
2018-12-08T01:01:22.906Z,95.60
2018-12-08T01:03:50.747Z,95.70
2018-12-08T01:06:18.305Z,95.90
2018-12-08T01:08:45.835Z,96.20
2018-12-08T01:11:14.259Z,96.50
2018-12-08T01:13:41.771Z,96.80
2018-12-08T01:16:09.272Z,97.00
2018-12-08T01:18:36.875Z,96.90
2018-12-08T01:21:04.379Z,97.00
2018-12-08T01:23:31.905Z,97.10
2018-12-08T01:26:00.063Z,97.30
2018-12-08T01:28:27.585Z,97.20
2018-12-08T01:30:56.116Z,97.40
2018-12-08T01:33:25.078Z,97.30
2018-12-08T01:35:52.599Z,97.40
2018-12-08T01:38:20.122Z,97.50
2018-12-08T01:40:48.232Z,97.60
2018-12-08T01:43:15.763Z,97.80
2018-12-08T01:45:43.307Z,97.80
2018-12-08T01:48:11.147Z,97.90
2018-12-08T01:50:38.655Z,97.90
2018-12-08T01:53:06.182Z,97.90
2018-12-08T01:55:33.797Z,97.80
2018-12-08T01:58:01.602Z,97.90
2018-12-08T02:00:29.165Z,97.90
2018-12-08T02:02:56.674Z,97.80
2018-12-08T02:05:24.202Z,97.50
2018-12-08T02:07:52.198Z,97.50
2018-12-08T02:10:19.712Z,97.30
2018-12-08T02:12:48.062Z,97.20
2018-12-08T02:15:16.936Z,97.20
2018-12-08T02:17:44.453Z,97.20
2018-12-08T02:20:11.977Z,97.10
2018-12-08T02:22:39.481Z,97.20
2018-12-08T02:25:07.017Z,97.20
2018-12-08T02:27:34.543Z,97.20
2018-12-08T02:30:02.416Z,97.30
2018-12-08T02:32:29.959Z,97.40
2018-12-08T02:34:57.466Z,97.30
2018-12-08T02:37:24.968Z,97.50
2018-12-08T02:39:52.705Z,97.70
2018-12-08T02:42:20.205Z,97.80
2018-12-08T02:44:48.518Z,98.10
2018-12-08T02:47:16.532Z,98.20
2018-12-08T02:49:44.120Z,98.40
2018-12-08T02:52:11.714Z,98.50
2018-12-08T02:54:39.216Z,98.70
2018-12-08T02:57:11.196Z,99.00
2018-12-08T02:59:38.825Z,98.90
2018-12-08T03:02:06.327Z,99.00
2018-12-08T03:04:33.867Z,99.00
2018-12-08T03:07:01.377Z,99.00
2018-12-08T03:09:29.795Z,99.10
2018-12-08T03:11:57.512Z,98.70
2018-12-08T03:14:25.021Z,98.80
2018-12-08T03:16:54.581Z,98.70
2018-12-08T03:19:22.142Z,98.80
2018-12-08T03:21:52.247Z,98.80
2018-12-08T03:24:19.777Z,99.00
2018-12-08T03:26:47.290Z,99.00
2018-12-08T03:29:14.806Z,98.80
2018-12-08T03:31:42.313Z,99.00
2018-12-08T03:34:10.813Z,99.30
2018-12-08T03:36:38.648Z,99.00
2018-12-08T03:39:07.385Z,99.00
2018-12-08T03:41:36.057Z,98.90
2018-12-08T03:44:03.740Z,98.80
2018-12-08T03:46:32.438Z,98.60
2018-12-08T03:48:59.971Z,98.30
2018-12-08T03:51:27.475Z,98.40
2018-12-08T03:53:55.597Z,98.20
2018-12-08T03:56:24.131Z,98.00
2018-12-08T03:58:51.661Z,98.00
2018-12-08T04:01:19.185Z,97.90
2018-12-08T04:03:48.722Z,98.10
2018-12-08T04:06:16.286Z,98.00
2018-12-08T04:08:43.788Z,97.90
2018-12-08T04:11:11.314Z,97.80
2018-12-08T04:13:38.864Z,97.70
2018-12-08T04:16:06.380Z,97.70
2018-12-08T04:18:33.915Z,98.00
2018-12-08T04:21:02.054Z,97.80
2018-12-08T04:23:29.608Z,97.70
2018-12-08T04:25:57.567Z,97.90
2018-12-08T04:28:25.606Z,97.80
2018-12-08T04:30:56.809Z,97.60
2018-12-08T04:33:24.316Z,97.90
2018-12-08T04:35:54.671Z,97.90
2018-12-08T04:38:23.277Z,97.90
2018-12-08T04:40:50.803Z,98.80
2018-12-08T04:43:18.332Z,99.30
2018-12-08T04:45:45.857Z,99.50
2018-12-08T04:48:13.354Z,99.90
2018-12-08T04:50:40.885Z,99.90
2018-12-08T04:53:08.385Z,99.90
2018-12-08T04:55:35.925Z,99.80
2018-12-08T04:58:03.587Z,99.60
2018-12-08T05:00:31.096Z,99.30
2018-12-08T05:02:58.637Z,99.30
2018-12-08T05:05:26.950Z,99.20
2018-12-08T05:07:56.058Z,99.30
2018-12-08T05:10:23.571Z,99.00
2018-12-08T05:12:51.071Z,99.10
2018-12-08T05:15:18.599Z,99.20
2018-12-08T05:17:49.065Z,99.50
2018-12-08T05:20:17.248Z,99.80
2018-12-08T05:22:44.759Z,99.90
2018-12-08T05:25:12.267Z,99.90
2018-12-08T05:27:39.803Z,99.90
2018-12-08T05:30:07.379Z,99.90
2018-12-08T05:32:34.933Z,99.90
2018-12-08T05:35:02.468Z,99.90
2018-12-08T05:37:29.976Z,99.90
2018-12-08T05:39:58.233Z,99.90
2018-12-08T05:42:26.182Z,99.90
2018-12-08T05:44:54.921Z,99.90
2018-12-08T05:47:24.761Z,99.90
2018-12-08T05:49:53.569Z,99.90
2018-12-08T05:52:21.820Z,99.90
2018-12-08T05:54:49.346Z,99.90
2018-12-08T05:57:17.697Z,99.90
2018-12-08T05:59:45.551Z,99.90
2018-12-08T06:02:13.127Z,99.90
2018-12-08T06:04:41.331Z,99.90
2018-12-08T06:07:08.878Z,99.90
2018-12-08T06:09:36.384Z,99.90
2018-12-08T06:12:03.983Z,99.90
2018-12-08T06:14:31.523Z,99.90
2018-12-08T06:16:59.782Z,99.90
2018-12-08T06:19:27.679Z,99.90
2018-12-08T06:21:55.393Z,99.90
2018-12-08T06:24:22.954Z,99.90
2018-12-08T06:26:50.878Z,99.90
2018-12-08T06:29:19.648Z,99.90
2018-12-08T06:31:47.649Z,99.90
2018-12-08T06:34:15.159Z,99.90
2018-12-08T06:36:42.691Z,99.90
2018-12-08T06:39:10.211Z,99.90
2018-12-08T06:41:37.752Z,99.90
2018-12-08T06:44:05.273Z,99.90
2018-12-08T06:46:33.474Z,99.90
2018-12-08T06:49:01.840Z,99.90
2018-12-08T06:51:29.360Z,99.90
2018-12-08T06:53:56.855Z,99.90
2018-12-08T06:56:25.641Z,99.90
2018-12-08T06:58:53.147Z,99.90
2018-12-08T07:01:20.765Z,99.90
2018-12-08T07:03:48.264Z,99.90
2018-12-08T07:06:15.793Z,99.90
2018-12-08T07:08:43.337Z,99.90
2018-12-08T07:11:10.851Z,99.90
2018-12-08T07:13:39.291Z,99.90
2018-12-08T07:16:06.785Z,99.90
2018-12-08T07:18:35.229Z,99.90
2018-12-08T07:21:02.746Z,99.90
2018-12-08T07:23:30.268Z,99.90
2018-12-08T07:25:57.814Z,99.90
2018-12-08T07:28:25.370Z,99.90
2018-12-08T07:30:57.907Z,99.90
2018-12-08T07:33:27.877Z,99.90
2018-12-08T07:35:55.372Z,99.90
2018-12-08T07:38:24.256Z,99.90
2018-12-08T07:40:51.845Z,99.90
2018-12-08T07:43:19.551Z,99.80
2018-12-08T07:45:47.098Z,99.90
2018-12-08T07:48:15.045Z,99.90
2018-12-08T07:50:42.566Z,99.90
2018-12-08T07:53:11.427Z,99.60
2018-12-08T07:55:38.937Z,99.70
2018-12-08T07:58:06.466Z,99.50
2018-12-08T08:00:33.984Z,99.50
2018-12-08T08:03:01.489Z,99.50
2018-12-08T08:05:29.036Z,99.30
2018-12-08T08:07:56.549Z,98.90
2018-12-08T08:10:24.958Z,99.00
2018-12-08T08:12:52.493Z,98.70
2018-12-08T08:15:20.024Z,98.60
2018-12-08T08:17:47.574Z,98.40
2018-12-08T08:20:16.260Z,98.50
2018-12-08T08:22:43.751Z,98.40
2018-12-08T08:25:11.275Z,98.20
2018-12-08T08:27:38.780Z,98.30
2018-12-08T08:30:08.746Z,97.90
2018-12-08T08:32:36.284Z,98.10
2018-12-08T08:35:05.052Z,97.90
2018-12-08T08:37:32.623Z,97.60
2018-12-08T08:40:00.177Z,97.80
2018-12-08T08:42:27.721Z,97.60
2018-12-08T08:44:55.772Z,97.50
2018-12-08T08:47:23.811Z,97.50
2018-12-08T08:49:51.967Z,97.20
2018-12-08T08:52:19.511Z,97.30
2018-12-08T08:54:48.323Z,97.30
2018-12-08T08:57:16.394Z,97.10
2018-12-08T08:59:43.913Z,97.60
2018-12-08T09:02:11.456Z,96.90
2018-12-08T09:04:39.345Z,96.70
2018-12-08T09:07:06.872Z,96.80
2018-12-08T09:09:34.435Z,96.90
2018-12-08T09:12:01.961Z,96.70
2018-12-08T09:14:29.498Z,96.80
2018-12-08T09:16:58.383Z,96.80
2018-12-08T09:19:27.608Z,96.40
2018-12-08T09:21:57.564Z,96.50
2018-12-08T09:24:26.051Z,96.20
2018-12-08T09:26:55.098Z,96.40
2018-12-08T09:29:22.626Z,96.50
2018-12-08T09:31:50.191Z,96.90
2018-12-08T09:34:17.695Z,96.40
2018-12-08T09:36:45.976Z,96.30
2018-12-08T09:39:16.041Z,96.50
2018-12-08T09:41:43.557Z,96.50
2018-12-08T09:44:33.726Z,96.40
2018-12-08T09:47:21.287Z,96.30
2018-12-08T09:49:50.079Z,96.30
2018-12-08T09:52:17.577Z,96.40
2018-12-08T09:54:45.080Z,96.90
2018-12-08T09:57:12.632Z,96.20
2018-12-08T09:59:40.208Z,96.40
2018-12-08T10:02:07.788Z,96.50
2018-12-08T10:04:35.337Z,96.30
2018-12-08T10:07:03.338Z,96.10
2018-12-08T10:09:30.885Z,96.40
2018-12-08T10:11:59.275Z,96.40
2018-12-08T10:14:28.451Z,96.20
2018-12-08T10:16:56.039Z,96.20
2018-12-08T10:19:23.554Z,96.40
2018-12-08T10:21:51.982Z,96.50
2018-12-08T10:24:19.934Z,96.20
2018-12-08T10:26:49.591Z,96.40
2018-12-08T10:29:17.196Z,96.40
2018-12-08T10:31:45.362Z,96.50
2018-12-08T10:34:20.166Z,96.80
2018-12-08T10:36:48.897Z,96.70
2018-12-08T10:39:17.742Z,96.50
2018-12-08T10:41:45.372Z,96.70
2018-12-08T10:44:12.935Z,96.70
2018-12-08T10:46:40.823Z,96.80
2018-12-08T10:49:08.350Z,96.70
2018-12-08T10:51:35.878Z,96.90
2018-12-08T10:54:03.476Z,96.90
2018-12-08T10:56:31.011Z,96.80
2018-12-08T10:58:58.523Z,97.00
2018-12-08T11:01:32.379Z,96.90
2018-12-08T11:04:04.924Z,97.10
2018-12-08T11:09:28.983Z,97.50
2018-12-08T11:11:57.220Z,97.50
2018-12-08T11:14:24.738Z,97.60
2018-12-08T11:16:53.057Z,97.90
2018-12-08T11:19:36.015Z,98.10
2018-12-08T11:22:03.586Z,97.80
2018-12-08T11:24:31.159Z,98.10
2018-12-08T11:26:58.734Z,98.30
2018-12-08T11:29:27.106Z,98.20
2018-12-08T11:31:57.410Z,98.40
2018-12-08T11:34:25.776Z,98.70
2018-12-08T11:36:53.609Z,98.90
2018-12-08T11:39:33.564Z,99.20
2018-12-08T11:42:01.349Z,99.40
2018-12-08T11:44:29.046Z,99.80
2018-12-08T11:46:58.302Z,99.80
2018-12-08T11:49:25.845Z,99.90
2018-12-08T11:51:54.551Z,99.90
2018-12-08T11:54:28.820Z,99.90
2018-12-08T11:56:57.119Z,99.90
2018-12-08T11:59:31.158Z,99.90
2018-12-08T12:04:48.773Z,99.90
2018-12-08T12:07:16.413Z,99.90
2018-12-08T12:09:43.908Z,99.90
2018-12-08T12:12:31.874Z,99.90
2018-12-08T12:15:05.434Z,99.90
2018-12-08T12:17:34.068Z,99.90
2018-12-08T12:20:01.601Z,99.90
2018-12-08T12:22:29.110Z,99.90
2018-12-08T12:24:58.001Z,99.90
2018-12-08T12:27:26.553Z,99.80
2018-12-08T12:29:54.117Z,99.90
2018-12-08T12:32:22.412Z,99.90
2018-12-08T12:34:50.148Z,99.90
2018-12-08T12:37:17.680Z,99.90
2018-12-08T12:39:45.836Z,99.90
2018-12-08T12:42:13.349Z,99.90
2018-12-08T12:44:42.041Z,99.70
2018-12-08T12:47:09.564Z,99.80
2018-12-08T12:49:37.122Z,99.90
2018-12-08T12:52:05.301Z,99.90
2018-12-08T12:54:32.806Z,99.90
2018-12-08T12:57:00.345Z,99.90
2018-12-08T12:59:27.864Z,99.90
2018-12-08T13:01:55.583Z,99.90
2018-12-08T13:04:23.845Z,99.90
2018-12-08T13:06:51.348Z,99.90
2018-12-08T13:09:18.886Z,99.90
2018-12-08T13:11:47.682Z,99.90
2018-12-08T13:14:15.210Z,99.90
2018-12-08T13:16:42.718Z,99.90
2018-12-08T13:19:10.234Z,99.90
2018-12-08T13:21:37.975Z,99.90
2018-12-08T13:24:05.483Z,99.90
2018-12-08T13:26:33.032Z,99.90
2018-12-08T13:29:00.603Z,99.90
2018-12-08T13:31:28.198Z,99.90
2018-12-08T13:34:05.082Z,99.90
2018-12-08T13:36:32.575Z,99.90
2018-12-08T13:39:00.107Z,99.90
2018-12-08T13:41:27.635Z,99.90
2018-12-08T13:43:55.215Z,99.90
2018-12-08T13:46:22.733Z,99.90
2018-12-08T13:48:50.320Z,99.90
2018-12-08T13:51:18.234Z,99.90
2018-12-08T13:53:46.611Z,99.90
2018-12-08T13:56:14.223Z,99.90
2018-12-08T13:58:41.762Z,99.90
2018-12-08T14:01:32.976Z,99.90
2018-12-08T14:04:07.700Z,99.90
2018-12-08T14:06:35.590Z,99.90
2018-12-08T14:09:05.453Z,99.90
2018-12-08T14:11:32.981Z,99.90
2018-12-08T14:14:00.964Z,99.90
2018-12-08T14:16:28.575Z,99.90
2018-12-08T14:18:56.802Z,99.90
2018-12-08T14:21:24.871Z,99.90
2018-12-08T14:23:55.047Z,99.90
2018-12-08T14:26:22.571Z,99.90
2018-12-08T14:28:50.362Z,99.90
2018-12-08T14:31:18.241Z,99.90
2018-12-08T14:33:45.783Z,99.90
2018-12-08T14:36:13.536Z,99.90
2018-12-08T14:38:41.926Z,99.90
2018-12-08T14:44:16.584Z,99.90
2018-12-08T14:46:44.123Z,99.90
2018-12-08T14:49:12.357Z,99.90
2018-12-08T14:51:40.864Z,99.90
2018-12-08T14:54:08.405Z,99.90
2018-12-08T14:56:35.932Z,99.90
2018-12-08T14:59:03.848Z,99.90
2018-12-08T15:01:42.094Z,99.90
2018-12-08T15:06:59.168Z,99.90
2018-12-08T15:09:26.677Z,99.90
2018-12-08T15:12:01.505Z,99.90
2018-12-08T15:14:29.541Z,99.90
2018-12-08T15:17:03.629Z,99.90
2018-12-08T15:19:31.163Z,99.90
2018-12-08T15:21:58.689Z,99.90
2018-12-08T15:24:26.216Z,99.90
2018-12-08T15:26:54.837Z,99.90
2018-12-08T15:29:22.412Z,99.90
2018-12-08T15:31:50.896Z,99.90
2018-12-08T15:34:18.585Z,99.90
2018-12-08T15:36:47.461Z,99.90
2018-12-08T15:39:14.984Z,99.90
2018-12-08T15:41:42.625Z,99.90
2018-12-08T15:44:10.263Z,99.90
2018-12-08T15:46:37.779Z,99.90
2018-12-08T15:49:05.792Z,99.90
2018-12-08T15:51:33.345Z,99.90
2018-12-08T15:54:00.893Z,99.90
2018-12-08T15:56:28.497Z,99.90
2018-12-08T15:58:56.098Z,99.90
2018-12-08T16:01:26.439Z,99.90
2018-12-08T16:03:57.278Z,99.90
2018-12-08T16:06:25.172Z,99.90
2018-12-08T16:08:52.711Z,99.90
2018-12-08T16:11:20.228Z,99.90
2018-12-08T16:13:47.817Z,99.90
2018-12-08T16:16:16.298Z,99.90
2018-12-08T16:18:44.956Z,99.90
2018-12-08T16:21:12.510Z,99.90
2018-12-08T16:23:47.677Z,99.90
2018-12-08T16:26:16.101Z,99.90
2018-12-08T16:28:43.651Z,99.90
2018-12-08T16:31:11.829Z,99.90
2018-12-08T16:33:39.362Z,99.90
2018-12-08T16:36:06.901Z,99.90
2018-12-08T16:38:34.550Z,99.90
2018-12-08T16:41:02.069Z,99.90
2018-12-08T16:43:29.651Z,99.90
2018-12-08T16:45:57.961Z,99.90
2018-12-08T16:48:26.187Z,99.90
2018-12-08T16:50:55.039Z,99.90
2018-12-08T16:53:24.778Z,99.90
2018-12-08T16:55:52.315Z,99.90
2018-12-08T16:58:19.845Z,99.90
2018-12-08T17:00:47.406Z,99.90
2018-12-08T17:03:16.479Z,99.90
2018-12-08T17:05:48.995Z,99.90
2018-12-08T17:08:18.393Z,99.90
2018-12-08T17:10:47.212Z,99.90
2018-12-08T17:13:16.144Z,99.90
2018-12-08T17:15:45.463Z,99.90
2018-12-08T17:18:14.580Z,99.90
2018-12-08T17:20:42.182Z,99.90
2018-12-08T17:23:09.677Z,99.90
2018-12-08T17:25:37.246Z,99.90
2018-12-08T17:28:07.002Z,99.90
2018-12-08T17:30:34.616Z,99.90
2018-12-08T17:33:02.857Z,99.90
2018-12-08T17:35:30.372Z,99.90
2018-12-08T17:37:59.352Z,99.90
2018-12-08T17:40:26.968Z,99.90
2018-12-08T17:42:54.634Z,99.90
2018-12-08T17:45:23.467Z,99.90
2018-12-08T17:47:55.177Z,99.90
2018-12-08T17:50:24.173Z,99.90
2018-12-08T17:55:29.767Z,99.90
2018-12-08T17:57:57.884Z,99.90
2018-12-08T18:00:25.412Z,99.90
2018-12-08T18:02:53.236Z,99.90
2018-12-08T18:05:20.775Z,99.90
2018-12-08T18:07:51.099Z,99.90
2018-12-08T18:10:21.945Z,99.90
2018-12-08T18:12:49.886Z,99.90
2018-12-08T18:15:18.201Z,99.90
2018-12-08T18:17:48.632Z,99.90
2018-12-08T18:20:16.237Z,99.90
2018-12-08T18:22:43.895Z,99.90
2018-12-08T18:25:11.990Z,99.90
2018-12-08T18:27:39.534Z,99.90
2018-12-08T18:30:07.243Z,99.90
2018-12-08T18:32:34.780Z,99.90
2018-12-08T18:35:02.312Z,99.90
2018-12-08T18:37:29.843Z,99.90
2018-12-08T18:39:57.389Z,99.90
2018-12-08T18:42:30.646Z,99.90
2018-12-08T18:44:58.168Z,99.90
2018-12-08T18:47:27.292Z,99.90
2018-12-08T18:49:56.298Z,99.90
2018-12-08T18:52:23.863Z,99.90
2018-12-08T18:54:51.375Z,99.90
2018-12-08T18:57:19.488Z,99.90
2018-12-08T18:59:49.054Z,99.90
2018-12-08T19:02:16.942Z,99.90
2018-12-08T19:04:44.619Z,99.90
2018-12-08T19:07:12.711Z,99.90
2018-12-08T19:09:40.470Z,99.90
2018-12-08T19:12:08.089Z,99.90
2018-12-08T19:14:35.632Z,99.90
2018-12-08T19:17:03.212Z,99.90
2018-12-08T19:19:30.747Z,99.90
2018-12-08T19:21:58.490Z,99.90
2018-12-08T19:24:27.413Z,99.90
2018-12-08T19:26:56.224Z,99.90
2018-12-08T19:29:28.351Z,99.90
2018-12-08T19:31:56.333Z,99.90
2018-12-08T19:34:24.059Z,99.90
2018-12-08T19:36:52.169Z,99.90
2018-12-08T19:39:19.717Z,99.90
2018-12-08T19:41:47.224Z,99.90
2018-12-08T19:44:14.811Z,99.90
2018-12-08T19:46:42.335Z,99.90
2018-12-08T19:49:09.847Z,99.90
2018-12-08T19:51:38.110Z,99.90
2018-12-08T19:54:06.351Z,99.90
2018-12-08T19:56:35.138Z,99.90
2018-12-08T19:59:08.289Z,99.90
2018-12-08T20:01:36.515Z,99.90
2018-12-08T20:04:15.417Z,99.90
2018-12-08T20:06:42.971Z,99.90
2018-12-08T20:09:10.471Z,99.90
2018-12-08T20:11:37.996Z,99.90
2018-12-08T20:14:05.557Z,99.90
2018-12-08T20:16:33.360Z,99.90
2018-12-08T20:19:00.883Z,99.90
2018-12-08T20:21:29.350Z,99.90
2018-12-08T20:23:57.512Z,99.90
2018-12-08T20:26:25.125Z,99.90
2018-12-08T20:28:53.416Z,99.90
2018-12-08T20:31:20.945Z,99.90
2018-12-08T20:33:48.721Z,99.90
2018-12-08T20:36:16.687Z,99.90
2018-12-08T20:38:46.146Z,99.90
2018-12-08T20:41:14.677Z,99.90
2018-12-08T20:43:42.267Z,99.90
2018-12-08T20:46:09.778Z,99.90
2018-12-08T20:48:38.286Z,99.90
2018-12-08T20:51:06.199Z,99.90
2018-12-08T20:53:33.737Z,99.90
2018-12-08T20:56:02.286Z,99.90
2018-12-08T20:58:29.783Z,99.90
2018-12-08T21:00:57.915Z,99.90
2018-12-08T21:03:26.197Z,99.90
2018-12-08T21:05:55.087Z,99.90
2018-12-08T21:08:22.610Z,99.90
2018-12-08T21:10:50.316Z,99.90
2018-12-08T21:13:23.734Z,99.90
2018-12-08T21:15:51.321Z,99.90
2018-12-08T21:18:18.914Z,99.90
2018-12-08T21:20:47.296Z,99.90
2018-12-08T21:23:16.096Z,99.90
2018-12-08T21:25:43.694Z,99.90
2018-12-08T21:28:11.240Z,99.90
2018-12-08T21:30:42.614Z,99.90
2018-12-08T21:33:11.237Z,99.90
2018-12-08T21:35:38.761Z,99.90
2018-12-08T21:38:07.243Z,99.90
2018-12-08T21:40:34.753Z,99.90
2018-12-08T21:43:02.332Z,99.90
2018-12-08T21:45:30.567Z,99.90
2018-12-08T21:47:58.102Z,99.90
2018-12-08T21:50:26.781Z,99.90
2018-12-08T21:52:55.545Z,99.90
2018-12-08T21:55:23.718Z,99.90
2018-12-08T21:57:51.242Z,99.90
2018-12-08T22:00:19.276Z,99.90
2018-12-08T22:02:46.922Z,99.90
2018-12-08T22:05:16.204Z,99.90
2018-12-08T22:07:47.563Z,99.90
2018-12-08T22:10:16.406Z,99.90
2018-12-08T22:12:45.041Z,99.90
2018-12-08T22:15:15.927Z,99.90
2018-12-08T22:17:44.082Z,99.90
2018-12-08T22:20:17.677Z,99.90
2018-12-08T22:22:45.203Z,99.90
2018-12-08T22:25:12.772Z,99.90
2018-12-08T22:27:40.585Z,99.90
2018-12-08T22:30:08.265Z,99.90
2018-12-08T22:32:35.775Z,99.90
2018-12-08T22:35:03.666Z,99.90
2018-12-08T22:37:31.169Z,99.90
2018-12-08T22:39:59.385Z,99.90
2018-12-08T22:42:30.092Z,99.90
2018-12-08T22:44:57.680Z,99.90
2018-12-08T22:47:25.202Z,99.90
2018-12-08T22:49:52.766Z,99.90
2018-12-08T22:52:20.326Z,99.90
2018-12-08T22:54:47.827Z,99.90
2018-12-08T22:57:15.360Z,99.90
2018-12-08T22:59:42.909Z,99.90
2018-12-08T23:02:10.412Z,99.90
2018-12-08T23:04:37.915Z,99.90
2018-12-08T23:07:05.451Z,99.90
2018-12-08T23:09:33.971Z,99.90
2018-12-08T23:12:01.502Z,99.90
2018-12-08T23:14:29.023Z,99.90
2018-12-08T23:16:56.526Z,99.90
2018-12-08T23:19:24.277Z,99.90
2018-12-08T23:21:51.781Z,99.90
2018-12-08T23:24:20.537Z,99.90
2018-12-08T23:26:48.111Z,99.90
2018-12-08T23:29:16.100Z,99.90
2018-12-08T23:31:47.940Z,99.90
2018-12-08T23:34:16.721Z,99.90
2018-12-08T23:36:44.996Z,99.90
2018-12-08T23:39:12.509Z,99.90
2018-12-08T23:41:40.010Z,99.90
2018-12-08T23:44:07.535Z,99.90
2018-12-08T23:46:35.628Z,99.90
2018-12-08T23:49:10.954Z,99.90
2018-12-08T23:51:37.181Z,99.90
2018-12-08T23:54:04.736Z,99.90
2018-12-08T23:56:32.702Z,99.90
2018-12-08T23:59:00.870Z,99.90
